KMOP/MOP METAR and TAF weather

Enter ICAO airport designator
Station Type Date Time Source
KMOP METAR 2020/10/29 17:15 UTC NOAA

KMOP 291715Z AUTO 36009G16KT 10SM SCT024 OVC035 07/01 A2988 RMK AO2 T00700006


Station Type Date Time Source
KMOP Decoded METAR 2020/10/29 17:15 UTC NOAA

Mount Pleasant, Mount Pleasant Municipal Airport, MI, United States (KMOP) 43-37N 84-44W
Oct 29, 2020 - 01:15 PM EDT / 2020.10.29 1715 UTC
Wind: from the N (360 degrees) at 10 MPH (9 KT) gusting to 18 MPH (16 KT):0
Visibility: 10 mile(s):0
Sky conditions: overcast
Temperature: 44.6 F (7.0 C)
Dew Point: 33.1 F (0.6 C)
Relative Humidity: 63%
Pressure (altimeter): 29.88 in. Hg (1011 hPa)
ob: KMOP 291715Z AUTO 36009G16KT 10SM SCT024 OVC035 07/01 A2988 RMK AO2 T00700006
cycle: 17

Station Type Date Time Source
KMOP TAF UTC NOAA

Error!

Example: see airport list